Grand Mound, IA

12:49 AM CST on February 27, 2015 (GMT -0600)
MesoWest GRNMO1 IA US UPR | Change Station
CLOSE
Current Station
Personal Weather Station
Location: Grand Mound, IA
Elevation: 724 ft
Nearby Weather Stations
Active Advisory: Wind Chill Advisory

Elev 724 ft 41.82 °N, 90.65 °W | Updated 2 hours ago

Clear
Clear
-3 °F
Feels Like -3 °F
N
Wind Variable Wind from North
Gusts 0.0 mph

Today
High -- | Low -- °F
--% Chance of Precip.
Yesterday
High -- | Low -- °F
Precip. -- in
6:40 AM 5:50 PM
Waxing Gibbous, 66% visible
Pressure 30.56 in
Visibility 10.0 miles
Clouds Clear
Windchill -3 °F
Dew Point Not available.
Humidity Not available.
Rainfall -999.00 in
Snow Depth Not available.
UV 0 out of 12
Pollen .50 out of 12
Air Quality Not available.
Flu Activity Not available.
METAR KDVN 270552Z AUTO 28008KT 10SM CLR M25/M28 A3050 RMK AO2 SLP349 T12501283 11150 21250 411001250 51006

More Conditions Fewer Conditions

Pressure 30.56 in
Visibility 10.0 miles
Clouds Clear
Windchill -3 °F
Dew Point Not available.
Humidity Not available.
Rainfall -999.00 in
Snow Depth Not available.
UV 0 out of 12
Pollen .50 out of 12
Air Quality Not available.
Flu Activity Not available.
METAR KDVN 270552Z AUTO 28008KT 10SM CLR M25/M28 A3050 RMK AO2 SLP349 T12501283 11150 21250 411001250 51006

More Conditions Fewer Conditions

10-Day Weather Forecast

Almanac

Astronomy

Feb. 27, 2015 Rise Set
Actual Time
Civil Twilight
Nautical Twilight
Astronomical Twilight
Moon
Length of Visible Light
Length of Day
Tomorrow will be .
, % of the Moon is Illuminated

Today's Extremes

State Highs State Lows

Community

WunderPhotos

Upload Photos

1,800,646 photos uploaded!

WunderBlogs® & News

Nearby

Air Quality

  Air Quality AQ Index Pollutant
Not available.

Snow Depth

Station Depth Elevation

Earthquake Activity

City Distance Mag. Time & Date
Minimum magnitude displayed is 2.5.

Coastal Water Temperatures

Place Temperature

Nearby Weather Stations

Wind Chill Advisory
Statement as of 11:37 PM CST on February 26, 2015

... Wind Chill Advisory remains in effect until 9 am CST Friday...

* timing... through mid morning.

* Wind chill readings... 20 below to near 30 below zero.

* Temperatures... 5 below to 13 below zero.

* Winds... northwest 5 mph to 10 mph.

* Impacts... frost bite and hypothermia may occur if precautions
are not taken.

Precautionary/preparedness actions...

A Wind Chill Advisory means that very cold air and wind
will combine to generate low wind chills... resulting in frost bite
and hypothermia if precautions are not taken. If you must venture
outdoors... dress in layers covering exposed skin. Frostbite will
occur in as few as 30 minutes in these conditions.